Argus, California
Current Conditions -  °F | °C
As of 6:56 PM on Monday 20 Oct 2014 (Local Time) from KNID Reporting Station
Broken Clouds Broken Clouds  
Wind Chill: 77°   Ceiling: 18000
Heat Index: 77°   Visibility: 10mi
Dew Point: 33°   Wind: 9mph
Humidity: 20%   Direction: 240°WSW
Pressure: 29.84"   Gusts: NA
Location:  35.6496°N, 117.375°W
Report Text: KNID 210156Z 24008KT 10SM BKN180 BKN270 25/01 A2984 RMK AO2 SLP092 T02500006 $
Loading
Personal Weather Stations






























Interactive Weather Map New forecast layout! Learn more

10-Day Weather Forecast

Advertisements
Track Severe Weather on mobile